Scarboro, Illinois
Current Conditions -  °F | °C
As of 12:15 AM on Thursday 29 Jan 2015 (Local Time) from KRPJ Reporting Station
Overcast Overcast  
Wind Chill: 24°   Ceiling: 8500
Heat Index: 33°   Visibility: 10mi
Dew Point: 30°   Wind: 12mph
Humidity: 87%   Direction: 160°SSE
Pressure: 29.75"   Gusts: NA
Location:  41.8255°N, 89.0204°W
Report Text: KRPJ 290615Z AUTO 16010KT 10SM OVC085 01/M01 A2975 RMK AO2 T00061013
Loading
Personal Weather Stations






























Interactive Weather Map New forecast layout! Learn more

10-Day Weather Forecast

Advertisements
Track Severe Weather on mobile